Walker, South Dakota
Current Conditions -  °F | °C
As of 6:52 AM on Friday 19 Dec 2014 (Local Time) from KMBG Reporting Station
Haze Haze  
Wind Chill: 12°   Ceiling: Unl
Heat Index: 21°   Visibility: 6mi
Dew Point: 18°   Wind: 7mph
Humidity: 88%   Direction: 140°SE
Pressure: 29.97"   Gusts: NA
Location:  45.91°N, 101.09°W
Report Text: KMBG 191352Z AUTO 14006KT 6SM BR SCT100 M06/M08 A2997 RMK AO2 SLP173 T10611078 $
Loading
Personal Weather Stations






























Interactive Weather Map New forecast layout! Learn more

10-Day Weather Forecast

Advertisements
Track Severe Weather on mobile